sensor_id;sensor_type;location;lat;lon;timestamp;P1;durP1;ratioP1;P2;durP2;ratioP2
69956;SDS011;57283;54.816;9.482;2023-08-30T00:02:06;6.40;;;2.77;;
69956;SDS011;57283;54.816;9.482;2023-08-30T00:04:36;5.88;;;2.97;;
69956;SDS011;57283;54.816;9.482;2023-08-30T00:07:04;6.45;;;3.45;;
69956;SDS011;57283;54.816;9.482;2023-08-30T00:09:32;5.93;;;2.70;;
69956;SDS011;57283;54.816;9.482;2023-08-30T00:12:02;6.05;;;2.70;;
69956;SDS011;57283;54.816;9.482;2023-08-30T00:14:30;6.70;;;3.03;;
69956;SDS011;57283;54.816;9.482;2023-08-30T00:16:59;5.70;;;2.63;;
69956;SDS011;57283;54.816;9.482;2023-08-30T00:19:30;6.82;;;2.90;;
69956;SDS011;57283;54.816;9.482;2023-08-30T00:21:59;6.72;;;2.78;;
69956;SDS011;57283;54.816;9.482;2023-08-30T00:24:27;5.15;;;2.72;;
69956;SDS011;57283;54.816;9.482;2023-08-30T00:26:56;7.03;;;3.00;;
69956;SDS011;57283;54.816;9.482;2023-08-30T00:29:24;5.43;;;2.80;;
69956;SDS011;57283;54.816;9.482;2023-08-30T00:31:52;6.40;;;3.40;;
69956;SDS011;57283;54.816;9.482;2023-08-30T00:34:20;7.63;;;3.13;;
69956;SDS011;57283;54.816;9.482;2023-08-30T00:36:48;6.47;;;3.05;;
69956;SDS011;57283;54.816;9.482;2023-08-30T00:39:17;6.17;;;3.20;;
69956;SDS011;57283;54.816;9.482;2023-08-30T00:41:45;6.80;;;3.45;;
69956;SDS011;57283;54.816;9.482;2023-08-30T00:44:13;6.45;;;3.20;;
69956;SDS011;57283;54.816;9.482;2023-08-30T00:46:41;7.13;;;3.40;;
69956;SDS011;57283;54.816;9.482;2023-08-30T00:49:09;5.97;;;3.03;;
69956;SDS011;57283;54.816;9.482;2023-08-30T00:51:37;5.93;;;2.93;;
69956;SDS011;57283;54.816;9.482;2023-08-30T00:54:05;7.43;;;3.38;;
69956;SDS011;57283;54.816;9.482;2023-08-30T00:56:35;6.60;;;3.25;;
69956;SDS011;57283;54.816;9.482;2023-08-30T00:59:03;6.43;;;3.20;;
69956;SDS011;57283;54.816;9.482;2023-08-30T01:01:31;6.38;;;3.05;;
69956;SDS011;57283;54.816;9.482;2023-08-30T01:03:59;6.47;;;2.70;;
69956;SDS011;57283;54.816;9.482;2023-08-30T01:06:28;6.22;;;3.03;;
69956;SDS011;57283;54.816;9.482;2023-08-30T01:08:55;6.82;;;3.05;;
69956;SDS011;57283;54.816;9.482;2023-08-30T01:11:25;6.90;;;3.35;;
69956;SDS011;57283;54.816;9.482;2023-08-30T01:14:03;5.80;;;2.92;;
69956;SDS011;57283;54.816;9.482;2023-08-30T01:16:35;6.27;;;2.83;;
69956;SDS011;57283;54.816;9.482;2023-08-30T01:19:04;4.78;;;2.67;;
69956;SDS011;57283;54.816;9.482;2023-08-30T01:21:47;5.80;;;2.60;;
69956;SDS011;57283;54.816;9.482;2023-08-30T01:24:23;5.63;;;2.85;;
69956;SDS011;57283;54.816;9.482;2023-08-30T01:27:05;6.00;;;2.70;;
69956;SDS011;57283;54.816;9.482;2023-08-30T01:29:36;4.53;;;2.30;;
69956;SDS011;57283;54.816;9.482;2023-08-30T01:32:05;5.03;;;2.45;;
69956;SDS011;57283;54.816;9.482;2023-08-30T01:34:36;4.32;;;2.03;;
69956;SDS011;57283;54.816;9.482;2023-08-30T01:37:06;5.13;;;2.50;;
69956;SDS011;57283;54.816;9.482;2023-08-30T01:39:35;4.25;;;2.20;;
69956;SDS011;57283;54.816;9.482;2023-08-30T01:42:07;5.90;;;2.80;;
69956;SDS011;57283;54.816;9.482;2023-08-30T01:44:36;4.82;;;2.30;;
69956;SDS011;57283;54.816;9.482;2023-08-30T01:47:05;4.80;;;2.38;;
69956;SDS011;57283;54.816;9.482;2023-08-30T01:49:33;4.50;;;2.30;;
69956;SDS011;57283;54.816;9.482;2023-08-30T01:52:04;5.05;;;2.40;;
69956;SDS011;57283;54.816;9.482;2023-08-30T01:54:32;4.43;;;2.17;;
69956;SDS011;57283;54.816;9.482;2023-08-30T01:57:00;3.97;;;2.00;;
69956;SDS011;57283;54.816;9.482;2023-08-30T01:59:30;5.18;;;1.92;;
69956;SDS011;57283;54.816;9.482;2023-08-30T02:01:58;4.82;;;2.30;;
69956;SDS011;57283;54.816;9.482;2023-08-30T02:04:26;4.35;;;2.15;;
69956;SDS011;57283;54.816;9.482;2023-08-30T02:06:54;4.20;;;2.20;;
69956;SDS011;57283;54.816;9.482;2023-08-30T02:09:33;4.53;;;2.20;;
69956;SDS011;57283;54.816;9.482;2023-08-30T02:12:08;4.75;;;2.03;;
69956;SDS011;57283;54.816;9.482;2023-08-30T02:14:41;3.97;;;1.95;;
69956;SDS011;57283;54.816;9.482;2023-08-30T02:17:13;4.25;;;2.00;;
69956;SDS011;57283;54.816;9.482;2023-08-30T02:19:42;4.20;;;2.13;;
69956;SDS011;57283;54.816;9.482;2023-08-30T02:22:11;4.55;;;2.00;;
69956;SDS011;57283;54.816;9.482;2023-08-30T02:24:39;4.57;;;2.05;;
69956;SDS011;57283;54.816;9.482;2023-08-30T02:27:07;4.13;;;1.90;;
69956;SDS011;57283;54.816;9.482;2023-08-30T02:29:34;4.38;;;1.80;;
69956;SDS011;57283;54.816;9.482;2023-08-30T02:32:04;4.60;;;2.20;;
69956;SDS011;57283;54.816;9.482;2023-08-30T02:34:32;5.15;;;2.30;;
69956;SDS011;57283;54.816;9.482;2023-08-30T02:37:02;6.18;;;2.05;;
69956;SDS011;57283;54.816;9.482;2023-08-30T02:39:29;4.03;;;2.10;;
69956;SDS011;57283;54.816;9.482;2023-08-30T02:41:57;4.07;;;2.00;;
69956;SDS011;57283;54.816;9.482;2023-08-30T02:44:25;4.50;;;2.00;;
69956;SDS011;57283;54.816;9.482;2023-08-30T02:46:53;4.65;;;2.28;;
69956;SDS011;57283;54.816;9.482;2023-08-30T02:49:22;4.07;;;1.77;;
69956;SDS011;57283;54.816;9.482;2023-08-30T02:51:50;4.28;;;2.00;;
69956;SDS011;57283;54.816;9.482;2023-08-30T02:54:18;4.55;;;1.80;;
69956;SDS011;57283;54.816;9.482;2023-08-30T02:56:46;4.37;;;2.13;;
69956;SDS011;57283;54.816;9.482;2023-08-30T02:59:13;4.00;;;1.95;;
69956;SDS011;57283;54.816;9.482;2023-08-30T03:01:41;3.60;;;1.73;;
69956;SDS011;57283;54.816;9.482;2023-08-30T03:04:09;4.00;;;1.90;;
69956;SDS011;57283;54.816;9.482;2023-08-30T03:06:38;4.28;;;1.90;;
69956;SDS011;57283;54.816;9.482;2023-08-30T03:09:06;4.90;;;2.10;;
69956;SDS011;57283;54.816;9.482;2023-08-30T03:11:34;3.70;;;2.00;;
69956;SDS011;57283;54.816;9.482;2023-08-30T03:14:02;4.50;;;2.03;;
69956;SDS011;57283;54.816;9.482;2023-08-30T03:16:30;4.80;;;2.20;;
69956;SDS011;57283;54.816;9.482;2023-08-30T03:18:58;4.32;;;2.10;;
69956;SDS011;57283;54.816;9.482;2023-08-30T03:21:26;4.30;;;2.10;;
69956;SDS011;57283;54.816;9.482;2023-08-30T03:23:56;4.10;;;2.22;;
69956;SDS011;57283;54.816;9.482;2023-08-30T03:26:23;5.25;;;2.30;;
69956;SDS011;57283;54.816;9.482;2023-08-30T03:28:51;4.82;;;2.80;;
69956;SDS011;57283;54.816;9.482;2023-08-30T03:31:19;5.07;;;2.70;;
69956;SDS011;57283;54.816;9.482;2023-08-30T03:33:48;5.93;;;2.43;;
69956;SDS011;57283;54.816;9.482;2023-08-30T03:36:17;5.15;;;2.67;;
69956;SDS011;57283;54.816;9.482;2023-08-30T03:38:45;4.88;;;2.33;;
69956;SDS011;57283;54.816;9.482;2023-08-30T03:41:15;5.22;;;2.65;;
69956;SDS011;57283;54.816;9.482;2023-08-30T03:43:42;5.25;;;2.65;;
69956;SDS011;57283;54.816;9.482;2023-08-30T03:46:10;4.93;;;2.30;;
69956;SDS011;57283;54.816;9.482;2023-08-30T03:48:38;4.65;;;2.35;;
69956;SDS011;57283;54.816;9.482;2023-08-30T03:51:06;5.07;;;2.63;;
69956;SDS011;57283;54.816;9.482;2023-08-30T03:53:34;5.95;;;2.45;;
69956;SDS011;57283;54.816;9.482;2023-08-30T03:56:02;6.95;;;3.17;;
69956;SDS011;57283;54.816;9.482;2023-08-30T03:58:32;5.53;;;2.53;;
69956;SDS011;57283;54.816;9.482;2023-08-30T04:01:00;6.65;;;2.90;;
69956;SDS011;57283;54.816;9.482;2023-08-30T04:03:27;5.93;;;3.00;;
69956;SDS011;57283;54.816;9.482;2023-08-30T04:05:56;5.78;;;3.00;;
69956;SDS011;57283;54.816;9.482;2023-08-30T04:08:24;6.25;;;3.30;;
69956;SDS011;57283;54.816;9.482;2023-08-30T04:10:52;6.10;;;3.40;;
69956;SDS011;57283;54.816;9.482;2023-08-30T04:13:20;6.80;;;3.20;;
69956;SDS011;57283;54.816;9.482;2023-08-30T04:15:50;7.38;;;4.00;;
69956;SDS011;57283;54.816;9.482;2023-08-30T04:18:18;7.72;;;3.88;;
69956;SDS011;57283;54.816;9.482;2023-08-30T04:20:46;7.40;;;3.75;;
69956;SDS011;57283;54.816;9.482;2023-08-30T04:23:14;8.40;;;3.70;;
69956;SDS011;57283;54.816;9.482;2023-08-30T04:25:43;7.75;;;3.70;;
69956;SDS011;57283;54.816;9.482;2023-08-30T04:28:12;9.10;;;4.28;;
69956;SDS011;57283;54.816;9.482;2023-08-30T04:30:39;9.48;;;3.92;;
69956;SDS011;57283;54.816;9.482;2023-08-30T04:33:09;8.00;;;4.18;;
69956;SDS011;57283;54.816;9.482;2023-08-30T04:35:37;8.40;;;4.40;;
69956;SDS011;57283;54.816;9.482;2023-08-30T04:38:05;9.82;;;4.35;;
69956;SDS011;57283;54.816;9.482;2023-08-30T04:40:35;7.35;;;4.10;;
69956;SDS011;57283;54.816;9.482;2023-08-30T04:43:03;9.32;;;4.28;;
69956;SDS011;57283;54.816;9.482;2023-08-30T04:45:30;8.55;;;4.50;;
69956;SDS011;57283;54.816;9.482;2023-08-30T04:47:58;8.00;;;4.37;;
69956;SDS011;57283;54.816;9.482;2023-08-30T04:50:27;9.52;;;4.80;;
69956;SDS011;57283;54.816;9.482;2023-08-30T04:52:56;9.32;;;4.75;;
69956;SDS011;57283;54.816;9.482;2023-08-30T04:55:24;8.90;;;4.68;;
69956;SDS011;57283;54.816;9.482;2023-08-30T04:57:52;10.13;;;5.07;;
69956;SDS011;57283;54.816;9.482;2023-08-30T05:00:20;8.97;;;5.10;;
69956;SDS011;57283;54.816;9.482;2023-08-30T05:02:48;9.63;;;4.70;;
69956;SDS011;57283;54.816;9.482;2023-08-30T05:05:16;9.68;;;5.18;;
69956;SDS011;57283;54.816;9.482;2023-08-30T05:07:46;11.60;;;5.32;;
69956;SDS011;57283;54.816;9.482;2023-08-30T05:10:14;9.00;;;4.80;;
69956;SDS011;57283;54.816;9.482;2023-08-30T05:12:42;9.23;;;4.60;;
69956;SDS011;57283;54.816;9.482;2023-08-30T05:15:14;9.95;;;5.00;;
69956;SDS011;57283;54.816;9.482;2023-08-30T05:17:42;8.95;;;5.00;;
69956;SDS011;57283;54.816;9.482;2023-08-30T05:20:10;9.02;;;4.75;;
69956;SDS011;57283;54.816;9.482;2023-08-30T05:22:38;9.10;;;5.10;;
69956;SDS011;57283;54.816;9.482;2023-08-30T05:25:07;9.40;;;5.00;;
69956;SDS011;57283;54.816;9.482;2023-08-30T05:27:36;11.32;;;4.90;;
69956;SDS011;57283;54.816;9.482;2023-08-30T05:30:05;9.13;;;5.00;;
69956;SDS011;57283;54.816;9.482;2023-08-30T05:32:34;9.52;;;4.72;;
69956;SDS011;57283;54.816;9.482;2023-08-30T05:35:02;9.05;;;4.63;;
69956;SDS011;57283;54.816;9.482;2023-08-30T05:37:30;9.87;;;4.77;;
69956;SDS011;57283;54.816;9.482;2023-08-30T05:39:57;9.13;;;4.95;;
69956;SDS011;57283;54.816;9.482;2023-08-30T05:42:27;11.00;;;5.20;;
69956;SDS011;57283;54.816;9.482;2023-08-30T05:44:54;8.60;;;4.65;;
69956;SDS011;57283;54.816;9.482;2023-08-30T05:47:22;8.68;;;5.00;;
69956;SDS011;57283;54.816;9.482;2023-08-30T05:49:50;8.30;;;4.63;;
69956;SDS011;57283;54.816;9.482;2023-08-30T05:52:18;8.25;;;4.63;;
69956;SDS011;57283;54.816;9.482;2023-08-30T05:54:46;8.55;;;4.75;;
69956;SDS011;57283;54.816;9.482;2023-08-30T05:57:14;9.10;;;4.95;;
69956;SDS011;57283;54.816;9.482;2023-08-30T05:59:43;8.00;;;4.47;;
69956;SDS011;57283;54.816;9.482;2023-08-30T06:02:11;8.83;;;4.63;;
69956;SDS011;57283;54.816;9.482;2023-08-30T06:04:39;7.95;;;4.45;;
69956;SDS011;57283;54.816;9.482;2023-08-30T06:07:07;7.45;;;4.15;;
69956;SDS011;57283;54.816;9.482;2023-08-30T06:09:35;7.35;;;3.97;;
69956;SDS011;57283;54.816;9.482;2023-08-30T06:12:03;8.27;;;4.53;;
69956;SDS011;57283;54.816;9.482;2023-08-30T06:14:31;8.83;;;4.57;;
69956;SDS011;57283;54.816;9.482;2023-08-30T06:17:00;8.88;;;4.47;;
69956;SDS011;57283;54.816;9.482;2023-08-30T06:19:28;8.35;;;4.55;;
69956;SDS011;57283;54.816;9.482;2023-08-30T06:21:56;9.75;;;4.85;;
69956;SDS011;57283;54.816;9.482;2023-08-30T06:24:24;9.93;;;4.72;;
69956;SDS011;57283;54.816;9.482;2023-08-30T06:26:52;10.17;;;5.07;;
69956;SDS011;57283;54.816;9.482;2023-08-30T06:29:19;8.90;;;4.88;;
69956;SDS011;57283;54.816;9.482;2023-08-30T06:31:47;8.93;;;5.10;;
69956;SDS011;57283;54.816;9.482;2023-08-30T06:34:16;9.38;;;5.03;;
69956;SDS011;57283;54.816;9.482;2023-08-30T06:36:44;9.60;;;5.10;;
69956;SDS011;57283;54.816;9.482;2023-08-30T06:39:12;8.60;;;4.80;;
69956;SDS011;57283;54.816;9.482;2023-08-30T06:41:40;9.75;;;5.00;;
69956;SDS011;57283;54.816;9.482;2023-08-30T06:44:08;8.70;;;4.85;;
69956;SDS011;57283;54.816;9.482;2023-08-30T06:46:36;7.40;;;4.18;;
69956;SDS011;57283;54.816;9.482;2023-08-30T06:49:06;9.13;;;4.63;;
69956;SDS011;57283;54.816;9.482;2023-08-30T06:51:37;9.53;;;4.80;;
69956;SDS011;57283;54.816;9.482;2023-08-30T06:54:05;8.55;;;4.93;;
69956;SDS011;57283;54.816;9.482;2023-08-30T06:56:32;8.13;;;4.85;;
69956;SDS011;57283;54.816;9.482;2023-08-30T06:59:00;9.38;;;4.88;;
69956;SDS011;57283;54.816;9.482;2023-08-30T07:01:28;8.05;;;4.80;;
69956;SDS011;57283;54.816;9.482;2023-08-30T07:03:58;8.93;;;4.90;;
69956;SDS011;57283;54.816;9.482;2023-08-30T07:06:26;9.23;;;4.95;;
69956;SDS011;57283;54.816;9.482;2023-08-30T07:08:58;9.32;;;5.10;;
69956;SDS011;57283;54.816;9.482;2023-08-30T07:11:26;7.90;;;4.40;;
69956;SDS011;57283;54.816;9.482;2023-08-30T07:13:59;9.15;;;5.28;;
69956;SDS011;57283;54.816;9.482;2023-08-30T07:16:27;7.93;;;5.10;;
69956;SDS011;57283;54.816;9.482;2023-08-30T07:18:55;10.30;;;5.25;;
69956;SDS011;57283;54.816;9.482;2023-08-30T07:21:23;8.82;;;5.13;;
69956;SDS011;57283;54.816;9.482;2023-08-30T07:23:51;9.05;;;4.85;;
69956;SDS011;57283;54.816;9.482;2023-08-30T07:26:20;11.70;;;5.20;;
69956;SDS011;57283;54.816;9.482;2023-08-30T07:28:48;8.80;;;5.07;;
69956;SDS011;57283;54.816;9.482;2023-08-30T07:31:16;10.85;;;5.28;;
69956;SDS011;57283;54.816;9.482;2023-08-30T07:33:44;8.05;;;4.82;;
69956;SDS011;57283;54.816;9.482;2023-08-30T07:36:12;8.07;;;4.97;;
69956;SDS011;57283;54.816;9.482;2023-08-30T07:38:40;7.78;;;4.80;;
69956;SDS011;57283;54.816;9.482;2023-08-30T07:41:09;7.83;;;4.93;;
69956;SDS011;57283;54.816;9.482;2023-08-30T07:43:39;7.18;;;4.60;;
69956;SDS011;57283;54.816;9.482;2023-08-30T07:46:07;8.13;;;4.55;;
69956;SDS011;57283;54.816;9.482;2023-08-30T07:48:35;8.55;;;4.80;;
69956;SDS011;57283;54.816;9.482;2023-08-30T07:51:03;9.02;;;5.22;;
69956;SDS011;57283;54.816;9.482;2023-08-30T07:53:31;9.00;;;5.67;;
69956;SDS011;57283;54.816;9.482;2023-08-30T07:55:59;8.27;;;5.15;;
69956;SDS011;57283;54.816;9.482;2023-08-30T07:58:27;9.30;;;5.63;;
69956;SDS011;57283;54.816;9.482;2023-08-30T08:00:56;7.95;;;5.22;;
69956;SDS011;57283;54.816;9.482;2023-08-30T08:03:24;9.73;;;4.75;;
69956;SDS011;57283;54.816;9.482;2023-08-30T08:05:52;9.87;;;5.47;;
69956;SDS011;57283;54.816;9.482;2023-08-30T08:08:20;8.07;;;4.80;;
69956;SDS011;57283;54.816;9.482;2023-08-30T08:10:48;10.02;;;5.00;;
69956;SDS011;57283;54.816;9.482;2023-08-30T08:13:16;9.65;;;5.35;;
69956;SDS011;57283;54.816;9.482;2023-08-30T08:15:44;8.02;;;5.05;;
69956;SDS011;57283;54.816;9.482;2023-08-30T08:18:13;9.80;;;5.67;;
69956;SDS011;57283;54.816;9.482;2023-08-30T08:20:41;8.73;;;5.30;;
69956;SDS011;57283;54.816;9.482;2023-08-30T08:23:09;10.43;;;5.78;;
69956;SDS011;57283;54.816;9.482;2023-08-30T08:25:37;8.38;;;5.03;;
69956;SDS011;57283;54.816;9.482;2023-08-30T08:28:05;9.23;;;5.53;;
69956;SDS011;57283;54.816;9.482;2023-08-30T08:30:33;8.60;;;5.40;;
69956;SDS011;57283;54.816;9.482;2023-08-30T08:33:01;8.07;;;4.93;;
69956;SDS011;57283;54.816;9.482;2023-08-30T08:35:31;12.15;;;5.45;;
69956;SDS011;57283;54.816;9.482;2023-08-30T08:37:58;9.15;;;5.72;;
69956;SDS011;57283;54.816;9.482;2023-08-30T08:40:27;8.77;;;5.38;;
69956;SDS011;57283;54.816;9.482;2023-08-30T08:43:07;9.40;;;5.13;;
69956;SDS011;57283;54.816;9.482;2023-08-30T08:45:38;9.02;;;5.20;;
69956;SDS011;57283;54.816;9.482;2023-08-30T08:48:06;9.23;;;5.50;;
69956;SDS011;57283;54.816;9.482;2023-08-30T08:50:36;8.57;;;5.55;;
69956;SDS011;57283;54.816;9.482;2023-08-30T08:53:04;9.00;;;5.43;;
69956;SDS011;57283;54.816;9.482;2023-08-30T08:55:33;9.90;;;5.43;;
69956;SDS011;57283;54.816;9.482;2023-08-30T08:58:03;8.05;;;5.82;;
69956;SDS011;57283;54.816;9.482;2023-08-30T09:00:31;8.00;;;5.28;;
69956;SDS011;57283;54.816;9.482;2023-08-30T09:02:59;7.93;;;5.38;;
69956;SDS011;57283;54.816;9.482;2023-08-30T09:05:31;8.82;;;6.35;;
69956;SDS011;57283;54.816;9.482;2023-08-30T09:08:02;9.77;;;6.70;;
69956;SDS011;57283;54.816;9.482;2023-08-30T09:10:31;8.10;;;6.60;;
69956;SDS011;57283;54.816;9.482;2023-08-30T09:12:59;8.60;;;6.95;;
69956;SDS011;57283;54.816;9.482;2023-08-30T09:15:30;9.68;;;7.25;;
69956;SDS011;57283;54.816;9.482;2023-08-30T09:17:58;10.10;;;7.38;;
69956;SDS011;57283;54.816;9.482;2023-08-30T09:20:27;9.83;;;7.30;;
69956;SDS011;57283;54.816;9.482;2023-08-30T09:22:55;11.23;;;7.28;;
69956;SDS011;57283;54.816;9.482;2023-08-30T09:25:24;9.90;;;7.65;;
69956;SDS011;57283;54.816;9.482;2023-08-30T09:27:56;9.02;;;7.35;;
69956;SDS011;57283;54.816;9.482;2023-08-30T09:30:25;11.70;;;7.70;;
69956;SDS011;57283;54.816;9.482;2023-08-30T09:32:53;9.67;;;7.70;;
69956;SDS011;57283;54.816;9.482;2023-08-30T09:35:21;8.63;;;7.38;;
69956;SDS011;57283;54.816;9.482;2023-08-30T09:37:49;9.95;;;7.57;;
69956;SDS011;57283;54.816;9.482;2023-08-30T09:40:18;10.43;;;8.65;;
69956;SDS011;57283;54.816;9.482;2023-08-30T09:42:48;10.52;;;7.35;;
69956;SDS011;57283;54.816;9.482;2023-08-30T09:45:32;9.10;;;7.13;;
69956;SDS011;57283;54.816;9.482;2023-08-30T09:48:00;9.38;;;7.40;;
69956;SDS011;57283;54.816;9.482;2023-08-30T09:50:29;7.70;;;6.75;;
69956;SDS011;57283;54.816;9.482;2023-08-30T09:53:02;7.60;;;6.70;;
69956;SDS011;57283;54.816;9.482;2023-08-30T09:55:35;8.73;;;6.38;;
69956;SDS011;57283;54.816;9.482;2023-08-30T09:58:04;8.50;;;6.80;;
69956;SDS011;57283;54.816;9.482;2023-08-30T10:00:32;9.25;;;7.07;;
69956;SDS011;57283;54.816;9.482;2023-08-30T10:03:01;7.68;;;5.97;;
69956;SDS011;57283;54.816;9.482;2023-08-30T10:05:49;8.45;;;6.15;;
69956;SDS011;57283;54.816;9.482;2023-08-30T10:08:18;7.97;;;6.40;;
69956;SDS011;57283;54.816;9.482;2023-08-30T10:10:47;8.27;;;6.57;;
69956;SDS011;57283;54.816;9.482;2023-08-30T10:13:18;8.63;;;6.15;;
69956;SDS011;57283;54.816;9.482;2023-08-30T10:15:48;7.55;;;5.80;;
69956;SDS011;57283;54.816;9.482;2023-08-30T10:18:19;8.00;;;5.88;;
69956;SDS011;57283;54.816;9.482;2023-08-30T10:20:49;7.30;;;5.75;;
69956;SDS011;57283;54.816;9.482;2023-08-30T10:23:21;7.23;;;5.20;;
69956;SDS011;57283;54.816;9.482;2023-08-30T10:25:50;6.85;;;5.03;;
69956;SDS011;57283;54.816;9.482;2023-08-30T10:28:22;6.25;;;4.70;;
69956;SDS011;57283;54.816;9.482;2023-08-30T10:30:51;8.38;;;4.90;;
69956;SDS011;57283;54.816;9.482;2023-08-30T10:33:19;6.60;;;5.00;;
69956;SDS011;57283;54.816;9.482;2023-08-30T10:35:52;8.00;;;4.87;;
69956;SDS011;57283;54.816;9.482;2023-08-30T10:38:25;7.22;;;5.25;;
69956;SDS011;57283;54.816;9.482;2023-08-30T10:40:54;7.03;;;5.13;;
69956;SDS011;57283;54.816;9.482;2023-08-30T10:43:30;8.02;;;5.40;;
69956;SDS011;57283;54.816;9.482;2023-08-30T10:46:01;7.72;;;6.25;;
69956;SDS011;57283;54.816;9.482;2023-08-30T10:48:34;7.53;;;5.67;;
69956;SDS011;57283;54.816;9.482;2023-08-30T10:51:03;7.40;;;5.68;;
69956;SDS011;57283;54.816;9.482;2023-08-30T10:53:33;8.18;;;5.72;;
69956;SDS011;57283;54.816;9.482;2023-08-30T10:56:09;7.50;;;6.20;;
69956;SDS011;57283;54.816;9.482;2023-08-30T10:58:40;7.32;;;5.78;;
69956;SDS011;57283;54.816;9.482;2023-08-30T11:01:09;8.23;;;6.00;;
69956;SDS011;57283;54.816;9.482;2023-08-30T11:03:39;8.07;;;6.05;;
69956;SDS011;57283;54.816;9.482;2023-08-30T11:06:07;8.93;;;7.05;;
69956;SDS011;57283;54.816;9.482;2023-08-30T11:08:35;10.02;;;7.97;;
69956;SDS011;57283;54.816;9.482;2023-08-30T11:11:03;9.88;;;7.63;;
69956;SDS011;57283;54.816;9.482;2023-08-30T11:13:32;10.40;;;8.13;;
69956;SDS011;57283;54.816;9.482;2023-08-30T11:16:01;9.30;;;8.40;;
69956;SDS011;57283;54.816;9.482;2023-08-30T11:18:30;10.48;;;9.07;;
69956;SDS011;57283;54.816;9.482;2023-08-30T11:21:03;8.93;;;8.02;;
69956;SDS011;57283;54.816;9.482;2023-08-30T11:23:32;9.95;;;8.57;;
69956;SDS011;57283;54.816;9.482;2023-08-30T11:26:01;8.93;;;7.83;;
69956;SDS011;57283;54.816;9.482;2023-08-30T11:28:30;8.75;;;7.07;;
69956;SDS011;57283;54.816;9.482;2023-08-30T11:30:58;9.30;;;7.72;;
69956;SDS011;57283;54.816;9.482;2023-08-30T11:33:27;9.07;;;7.90;;
69956;SDS011;57283;54.816;9.482;2023-08-30T11:35:55;8.82;;;7.72;;
69956;SDS011;57283;54.816;9.482;2023-08-30T11:38:24;9.80;;;7.57;;
69956;SDS011;57283;54.816;9.482;2023-08-30T11:40:53;9.05;;;6.90;;
69956;SDS011;57283;54.816;9.482;2023-08-30T11:43:22;9.20;;;7.35;;
69956;SDS011;57283;54.816;9.482;2023-08-30T11:45:55;9.52;;;7.50;;
69956;SDS011;57283;54.816;9.482;2023-08-30T11:48:23;9.50;;;7.15;;
69956;SDS011;57283;54.816;9.482;2023-08-30T11:50:53;9.60;;;6.77;;
69956;SDS011;57283;54.816;9.482;2023-08-30T11:53:21;9.80;;;7.28;;
69956;SDS011;57283;54.816;9.482;2023-08-30T11:55:49;8.73;;;6.75;;
69956;SDS011;57283;54.816;9.482;2023-08-30T11:58:17;8.70;;;6.85;;
69956;SDS011;57283;54.816;9.482;2023-08-30T12:00:46;8.60;;;6.20;;
69956;SDS011;57283;54.816;9.482;2023-08-30T12:03:17;9.43;;;7.50;;
69956;SDS011;57283;54.816;9.482;2023-08-30T12:05:44;9.23;;;7.03;;
69956;SDS011;57283;54.816;9.482;2023-08-30T12:08:20;10.60;;;6.82;;
69956;SDS011;57283;54.816;9.482;2023-08-30T12:10:50;10.70;;;7.45;;
69956;SDS011;57283;54.816;9.482;2023-08-30T12:13:19;9.40;;;6.55;;
69956;SDS011;57283;54.816;9.482;2023-08-30T12:15:48;10.67;;;7.23;;
69956;SDS011;57283;54.816;9.482;2023-08-30T12:18:16;9.13;;;6.75;;
69956;SDS011;57283;54.816;9.482;2023-08-30T12:20:53;9.88;;;6.07;;
69956;SDS011;57283;54.816;9.482;2023-08-30T12:23:24;8.82;;;6.10;;
69956;SDS011;57283;54.816;9.482;2023-08-30T12:25:59;9.27;;;6.25;;
69956;SDS011;57283;54.816;9.482;2023-08-30T12:28:28;7.90;;;5.90;;
69956;SDS011;57283;54.816;9.482;2023-08-30T12:30:56;9.98;;;5.82;;
69956;SDS011;57283;54.816;9.482;2023-08-30T12:33:27;8.52;;;5.97;;
69956;SDS011;57283;54.816;9.482;2023-08-30T12:35:55;8.52;;;5.22;;
69956;SDS011;57283;54.816;9.482;2023-08-30T12:38:25;8.30;;;6.15;;
69956;SDS011;57283;54.816;9.482;2023-08-30T12:40:53;7.33;;;4.87;;
69956;SDS011;57283;54.816;9.482;2023-08-30T12:43:22;7.50;;;5.30;;
69956;SDS011;57283;54.816;9.482;2023-08-30T12:45:51;7.53;;;5.45;;
69956;SDS011;57283;54.816;9.482;2023-08-30T12:48:18;7.70;;;5.53;;
69956;SDS011;57283;54.816;9.482;2023-08-30T12:50:47;7.38;;;5.40;;
69956;SDS011;57283;54.816;9.482;2023-08-30T12:53:15;7.80;;;6.00;;
69956;SDS011;57283;54.816;9.482;2023-08-30T12:55:45;7.88;;;5.00;;
69956;SDS011;57283;54.816;9.482;2023-08-30T12:58:13;7.50;;;5.32;;
69956;SDS011;57283;54.816;9.482;2023-08-30T13:00:41;8.27;;;6.03;;
69956;SDS011;57283;54.816;9.482;2023-08-30T13:03:09;7.30;;;5.70;;
69956;SDS011;57283;54.816;9.482;2023-08-30T13:05:37;7.87;;;5.43;;
69956;SDS011;57283;54.816;9.482;2023-08-30T13:08:05;8.05;;;5.53;;
69956;SDS011;57283;54.816;9.482;2023-08-30T13:10:33;9.02;;;5.82;;
69956;SDS011;57283;54.816;9.482;2023-08-30T13:13:02;7.97;;;5.22;;
69956;SDS011;57283;54.816;9.482;2023-08-30T13:15:30;7.80;;;4.88;;
69956;SDS011;57283;54.816;9.482;2023-08-30T13:17:59;7.20;;;4.67;;
69956;SDS011;57283;54.816;9.482;2023-08-30T13:20:27;8.57;;;5.10;;
69956;SDS011;57283;54.816;9.482;2023-08-30T13:22:54;7.25;;;5.30;;
69956;SDS011;57283;54.816;9.482;2023-08-30T13:25:22;7.40;;;5.13;;
69956;SDS011;57283;54.816;9.482;2023-08-30T13:27:51;10.35;;;4.90;;
69956;SDS011;57283;54.816;9.482;2023-08-30T13:30:21;8.33;;;4.87;;
69956;SDS011;57283;54.816;9.482;2023-08-30T13:32:49;7.63;;;4.80;;
69956;SDS011;57283;54.816;9.482;2023-08-30T13:35:16;8.45;;;5.47;;
69956;SDS011;57283;54.816;9.482;2023-08-30T13:37:44;8.23;;;5.43;;
69956;SDS011;57283;54.816;9.482;2023-08-30T13:40:12;9.30;;;5.32;;
69956;SDS011;57283;54.816;9.482;2023-08-30T13:42:40;9.67;;;4.87;;
69956;SDS011;57283;54.816;9.482;2023-08-30T13:45:08;8.30;;;4.85;;
69956;SDS011;57283;54.816;9.482;2023-08-30T13:47:38;7.28;;;4.65;;
69956;SDS011;57283;54.816;9.482;2023-08-30T13:50:06;8.63;;;4.70;;
69956;SDS011;57283;54.816;9.482;2023-08-30T13:52:34;8.43;;;4.72;;
69956;SDS011;57283;54.816;9.482;2023-08-30T13:55:02;8.23;;;4.57;;
69956;SDS011;57283;54.816;9.482;2023-08-30T13:57:31;7.07;;;4.43;;
69956;SDS011;57283;54.816;9.482;2023-08-30T13:59:59;8.45;;;4.72;;
69956;SDS011;57283;54.816;9.482;2023-08-30T14:02:29;7.63;;;4.30;;
69956;SDS011;57283;54.816;9.482;2023-08-30T14:05:00;8.18;;;4.70;;
69956;SDS011;57283;54.816;9.482;2023-08-30T14:07:28;7.73;;;4.47;;
69956;SDS011;57283;54.816;9.482;2023-08-30T14:09:56;8.02;;;4.60;;
69956;SDS011;57283;54.816;9.482;2023-08-30T14:12:24;8.85;;;4.63;;
69956;SDS011;57283;54.816;9.482;2023-08-30T14:14:52;8.65;;;4.60;;
69956;SDS011;57283;54.816;9.482;2023-08-30T14:17:19;8.23;;;4.32;;
69956;SDS011;57283;54.816;9.482;2023-08-30T14:19:50;7.43;;;4.47;;
69956;SDS011;57283;54.816;9.482;2023-08-30T14:22:19;8.30;;;5.03;;
69956;SDS011;57283;54.816;9.482;2023-08-30T14:24:47;8.13;;;4.22;;
69956;SDS011;57283;54.816;9.482;2023-08-30T14:27:34;7.50;;;4.22;;
69956;SDS011;57283;54.816;9.482;2023-08-30T14:30:02;8.05;;;4.20;;
69956;SDS011;57283;54.816;9.482;2023-08-30T14:32:30;9.00;;;4.30;;
69956;SDS011;57283;54.816;9.482;2023-08-30T14:34:58;8.35;;;4.15;;
69956;SDS011;57283;54.816;9.482;2023-08-30T14:37:27;7.30;;;4.13;;
69956;SDS011;57283;54.816;9.482;2023-08-30T14:39:55;8.80;;;4.57;;
69956;SDS011;57283;54.816;9.482;2023-08-30T14:42:23;9.23;;;5.15;;
69956;SDS011;57283;54.816;9.482;2023-08-30T14:44:51;8.97;;;5.00;;
69956;SDS011;57283;54.816;9.482;2023-08-30T14:47:19;8.27;;;4.82;;
69956;SDS011;57283;54.816;9.482;2023-08-30T14:49:47;7.65;;;4.20;;
69956;SDS011;57283;54.816;9.482;2023-08-30T14:52:15;7.82;;;4.70;;
69956;SDS011;57283;54.816;9.482;2023-08-30T14:54:45;8.70;;;4.32;;
69956;SDS011;57283;54.816;9.482;2023-08-30T14:57:13;7.13;;;4.20;;
69956;SDS011;57283;54.816;9.482;2023-08-30T14:59:41;8.40;;;4.22;;